Ncc Najd — HZAK — position and weather

sailwx.info

Track history (hours):
 
Tides and Currents Weather Stations Pressure Air Temp Water Temp Dewpoint Dewpoint Depression Visibility Wind Speed Wind Dir Waves Ship Positions

Ncc Najd

Last reported at 2017-Jan-10 13:33 UTC. Time now 2017-Jan-16 10:48 UTC.
Position N 01°14' E 103°58'.

Length 183 m; draft 10.9 m.

Type: Tanker. MMSI: 403579000.

Date/timePositionNaut miles runAvg speedWind from/ knotsBaromVisibWave heightAir tempDewpointWater temp
2017-Jan-10 13:33N 01°14' E 103°58'11 9.9
2017-Jan-10 12:28N 01°10' E 103°48'14 7.1
2017-Jan-10 10:32N 01°05' E 103°35'10 2.6
2017-Jan-10 06:32N 01°14' E 103°42'5 0.2
2017-Jan-09 04:24N 01°18' E 103°44'2 0.1
2017-Jan-08 10:10N 01°16' E 103°44'0 0.2
2017-Jan-08 09:33N 01°16' E 103°44'2 2.1
2017-Jan-08 08:33N 01°14' E 103°43'3 0.4
2017-Jan-07 23:31N 01°12' E 103°41'7710.4
2017-Jan-07 16:04N 01°46' E 102°31'814.3
2017-Jan-07 15:29N 01°49' E 102°24'  
Track history (hours):
 
Tides and Currents Weather Stations Pressure Air Temp Water Temp Dewpoint Dewpoint Depression Visibility Wind Speed Wind Dir Waves Ship Positions

Ncc Najd

Last reported at 2017-Jan-10 13:33 UTC. Time now 2017-Jan-16 10:48 UTC.
Position N 01°14' E 103°58'.

Length 183 m; draft 10.9 m.

Type: Tanker. MMSI: 403579000.

Date/timePositionNaut miles runAvg speedWind from/ knotsBaromVisibWave heightAir tempDewpointWater temp
2017-Jan-10 13:33N 01°14' E 103°58'11 9.9
2017-Jan-10 12:28N 01°10' E 103°48'14 7.1
2017-Jan-10 10:32N 01°05' E 103°35'10 2.6
2017-Jan-10 06:32N 01°14' E 103°42'5 0.2
2017-Jan-09 04:24N 01°18' E 103°44'2 0.1
2017-Jan-08 10:10N 01°16' E 103°44'0 0.2
2017-Jan-08 09:33N 01°16' E 103°44'2 2.1
2017-Jan-08 08:33N 01°14' E 103°43'3 0.4
2017-Jan-07 23:31N 01°12' E 103°41'7710.4
2017-Jan-07 16:04N 01°46' E 102°31'814.3
2017-Jan-07 15:29N 01°49' E 102°24'  

Dump ship's entire track history